< < Back
Terminal Aerodrome Forecast


Current Version              Previous Versions:   1  2  3  4  5  6  7  8  9  

Terminal Aerodrome Forecast

191
FTUS44 KMRX 070522
TAFCHA
TAF
KCHA 070522Z 0706/0806 36003KT P6SM SCT250
     FM071800 26006KT P6SM BKN250
     FM080000 20005KT P6SM SCT250=

Latest METAR

388
SAUS80 KWBC 080800
MTRCHA
METAR KCHA 080753Z AUTO 19006KT 10SM CLR 06/M04 A2988 RMK AO2 SLP118
T00611044


USA.gov is the U.S. government's official web portal to all federal, state and local government web resources and services.